sensor_id;sensor_type;location;lat;lon;timestamp;P1;durP1;ratioP1;P2;durP2;ratioP2
43933;SDS011;59081;42.706;23.306;2023-07-20T00:01:59;9.80;;;2.95;;
43933;SDS011;59081;42.706;23.306;2023-07-20T00:04:24;9.05;;;2.25;;
43933;SDS011;59081;42.706;23.306;2023-07-20T00:06:51;10.18;;;3.03;;
43933;SDS011;59081;42.706;23.306;2023-07-20T00:09:16;9.55;;;2.67;;
43933;SDS011;59081;42.706;23.306;2023-07-20T00:11:47;8.07;;;2.65;;
43933;SDS011;59081;42.706;23.306;2023-07-20T00:14:17;9.07;;;3.10;;
43933;SDS011;59081;42.706;23.306;2023-07-20T00:16:44;8.77;;;2.63;;
43933;SDS011;59081;42.706;23.306;2023-07-20T00:19:11;10.02;;;2.78;;
43933;SDS011;59081;42.706;23.306;2023-07-20T00:21:37;10.27;;;2.88;;
43933;SDS011;59081;42.706;23.306;2023-07-20T00:24:05;5.57;;;2.30;;
43933;SDS011;59081;42.706;23.306;2023-07-20T00:26:31;9.18;;;2.55;;
43933;SDS011;59081;42.706;23.306;2023-07-20T00:28:57;8.38;;;2.50;;
43933;SDS011;59081;42.706;23.306;2023-07-20T00:31:22;12.48;;;2.70;;
43933;SDS011;59081;42.706;23.306;2023-07-20T00:33:48;10.50;;;3.33;;
43933;SDS011;59081;42.706;23.306;2023-07-20T00:36:13;9.48;;;2.92;;
43933;SDS011;59081;42.706;23.306;2023-07-20T00:38:39;11.35;;;2.50;;
43933;SDS011;59081;42.706;23.306;2023-07-20T00:41:05;8.32;;;2.38;;
43933;SDS011;59081;42.706;23.306;2023-07-20T00:43:31;10.07;;;2.65;;
43933;SDS011;59081;42.706;23.306;2023-07-20T00:45:57;6.80;;;2.63;;
43933;SDS011;59081;42.706;23.306;2023-07-20T00:48:22;10.23;;;2.42;;
43933;SDS011;59081;42.706;23.306;2023-07-20T00:50:48;10.55;;;2.95;;
43933;SDS011;59081;42.706;23.306;2023-07-20T00:53:15;7.65;;;2.95;;
43933;SDS011;59081;42.706;23.306;2023-07-20T00:55:41;10.02;;;2.40;;
43933;SDS011;59081;42.706;23.306;2023-07-20T00:58:07;9.73;;;3.28;;
43933;SDS011;59081;42.706;23.306;2023-07-20T01:00:33;6.10;;;2.40;;
43933;SDS011;59081;42.706;23.306;2023-07-20T01:02:59;8.00;;;2.42;;
43933;SDS011;59081;42.706;23.306;2023-07-20T01:05:26;7.82;;;2.60;;
43933;SDS011;59081;42.706;23.306;2023-07-20T01:08:03;8.43;;;2.35;;
43933;SDS011;59081;42.706;23.306;2023-07-20T01:10:54;9.90;;;3.45;;
43933;SDS011;59081;42.706;23.306;2023-07-20T01:13:24;10.48;;;3.05;;
43933;SDS011;59081;42.706;23.306;2023-07-20T01:15:56;8.70;;;3.33;;
43933;SDS011;59081;42.706;23.306;2023-07-20T01:20:49;10.20;;;3.08;;
43933;SDS011;59081;42.706;23.306;2023-07-20T01:28:35;14.25;;;3.58;;
43933;SDS011;59081;42.706;23.306;2023-07-20T01:31:27;6.15;;;2.47;;
43933;SDS011;59081;42.706;23.306;2023-07-20T01:33:57;5.15;;;2.15;;
43933;SDS011;59081;42.706;23.306;2023-07-20T01:36:26;9.25;;;2.65;;
43933;SDS011;59081;42.706;23.306;2023-07-20T01:38:54;9.07;;;2.97;;
43933;SDS011;59081;42.706;23.306;2023-07-20T01:41:21;6.82;;;2.53;;
43933;SDS011;59081;42.706;23.306;2023-07-20T01:43:47;4.25;;;2.60;;
43933;SDS011;59081;42.706;23.306;2023-07-20T01:46:13;8.50;;;2.00;;
43933;SDS011;59081;42.706;23.306;2023-07-20T01:48:38;9.32;;;2.63;;
43933;SDS011;59081;42.706;23.306;2023-07-20T01:51:04;5.88;;;2.65;;
43933;SDS011;59081;42.706;23.306;2023-07-20T01:53:30;13.95;;;2.70;;
43933;SDS011;59081;42.706;23.306;2023-07-20T01:55:56;8.88;;;2.97;;
43933;SDS011;59081;42.706;23.306;2023-07-20T01:58:22;12.38;;;2.58;;
43933;SDS011;59081;42.706;23.306;2023-07-20T02:00:48;10.75;;;3.47;;
43933;SDS011;59081;42.706;23.306;2023-07-20T02:03:13;6.65;;;2.97;;
43933;SDS011;59081;42.706;23.306;2023-07-20T02:05:39;9.43;;;2.78;;
43933;SDS011;59081;42.706;23.306;2023-07-20T02:08:07;3.67;;;2.08;;
43933;SDS011;59081;42.706;23.306;2023-07-20T02:10:33;11.32;;;3.00;;
43933;SDS011;59081;42.706;23.306;2023-07-20T02:12:59;7.03;;;2.50;;
43933;SDS011;59081;42.706;23.306;2023-07-20T02:15:25;9.65;;;2.03;;
43933;SDS011;59081;42.706;23.306;2023-07-20T02:17:51;8.20;;;2.63;;
43933;SDS011;59081;42.706;23.306;2023-07-20T02:20:19;6.93;;;2.83;;
43933;SDS011;59081;42.706;23.306;2023-07-20T02:22:45;8.13;;;3.10;;
43933;SDS011;59081;42.706;23.306;2023-07-20T02:25:11;9.05;;;2.92;;
43933;SDS011;59081;42.706;23.306;2023-07-20T02:27:37;12.35;;;2.88;;
43933;SDS011;59081;42.706;23.306;2023-07-20T02:30:06;8.52;;;2.83;;
43933;SDS011;59081;42.706;23.306;2023-07-20T02:32:33;13.40;;;3.45;;
43933;SDS011;59081;42.706;23.306;2023-07-20T02:34:59;8.32;;;2.72;;
43933;SDS011;59081;42.706;23.306;2023-07-20T02:37:24;7.15;;;2.35;;
43933;SDS011;59081;42.706;23.306;2023-07-20T02:39:50;10.27;;;2.90;;
43933;SDS011;59081;42.706;23.306;2023-07-20T02:42:15;6.43;;;2.70;;
43933;SDS011;59081;42.706;23.306;2023-07-20T02:44:41;9.02;;;2.92;;
43933;SDS011;59081;42.706;23.306;2023-07-20T02:47:07;9.73;;;3.35;;
43933;SDS011;59081;42.706;23.306;2023-07-20T02:49:33;12.70;;;2.35;;
43933;SDS011;59081;42.706;23.306;2023-07-20T02:51:58;12.65;;;2.78;;
43933;SDS011;59081;42.706;23.306;2023-07-20T02:54:24;8.05;;;3.03;;
43933;SDS011;59081;42.706;23.306;2023-07-20T02:56:49;12.02;;;3.13;;
43933;SDS011;59081;42.706;23.306;2023-07-20T02:59:17;12.70;;;3.20;;
43933;SDS011;59081;42.706;23.306;2023-07-20T03:01:45;8.95;;;2.92;;
43933;SDS011;59081;42.706;23.306;2023-07-20T03:04:14;9.32;;;2.90;;
43933;SDS011;59081;42.706;23.306;2023-07-20T03:06:41;9.20;;;3.05;;
43933;SDS011;59081;42.706;23.306;2023-07-20T03:09:06;7.40;;;2.75;;
43933;SDS011;59081;42.706;23.306;2023-07-20T03:11:34;9.43;;;3.03;;
43933;SDS011;59081;42.706;23.306;2023-07-20T03:14:00;7.47;;;3.13;;
43933;SDS011;59081;42.706;23.306;2023-07-20T03:16:25;10.10;;;2.63;;
43933;SDS011;59081;42.706;23.306;2023-07-20T03:18:51;11.18;;;3.13;;
43933;SDS011;59081;42.706;23.306;2023-07-20T03:21:17;10.70;;;2.78;;
43933;SDS011;59081;42.706;23.306;2023-07-20T03:23:43;12.07;;;3.35;;
43933;SDS011;59081;42.706;23.306;2023-07-20T03:26:08;9.52;;;2.75;;
43933;SDS011;59081;42.706;23.306;2023-07-20T03:28:35;8.98;;;2.83;;
43933;SDS011;59081;42.706;23.306;2023-07-20T03:31:01;13.60;;;3.17;;
43933;SDS011;59081;42.706;23.306;2023-07-20T03:33:27;11.93;;;3.45;;
43933;SDS011;59081;42.706;23.306;2023-07-20T03:35:56;10.13;;;3.03;;
43933;SDS011;59081;42.706;23.306;2023-07-20T03:38:25;10.20;;;3.10;;
43933;SDS011;59081;42.706;23.306;2023-07-20T03:40:56;12.50;;;3.70;;
43933;SDS011;59081;42.706;23.306;2023-07-20T03:43:24;8.10;;;2.95;;
43933;SDS011;59081;42.706;23.306;2023-07-20T03:45:51;10.90;;;3.50;;
43933;SDS011;59081;42.706;23.306;2023-07-20T03:48:17;10.60;;;4.05;;
43933;SDS011;59081;42.706;23.306;2023-07-20T03:50:44;9.07;;;3.03;;
43933;SDS011;59081;42.706;23.306;2023-07-20T03:53:12;10.65;;;3.88;;
43933;SDS011;59081;42.706;23.306;2023-07-20T03:55:39;7.50;;;2.85;;
43933;SDS011;59081;42.706;23.306;2023-07-20T03:58:07;8.18;;;3.72;;
43933;SDS011;59081;42.706;23.306;2023-07-20T04:00:36;9.00;;;2.90;;
43933;SDS011;59081;42.706;23.306;2023-07-20T04:03:01;7.03;;;2.92;;
43933;SDS011;59081;42.706;23.306;2023-07-20T04:05:27;15.40;;;3.70;;
43933;SDS011;59081;42.706;23.306;2023-07-20T04:07:52;11.73;;;3.45;;
43933;SDS011;59081;42.706;23.306;2023-07-20T04:10:18;13.52;;;2.97;;
43933;SDS011;59081;42.706;23.306;2023-07-20T04:12:45;9.55;;;3.50;;
43933;SDS011;59081;42.706;23.306;2023-07-20T04:15:12;11.15;;;3.72;;
43933;SDS011;59081;42.706;23.306;2023-07-20T04:17:40;11.98;;;3.10;;
43933;SDS011;59081;42.706;23.306;2023-07-20T04:20:06;10.98;;;3.95;;
43933;SDS011;59081;42.706;23.306;2023-07-20T04:22:33;11.57;;;3.25;;
43933;SDS011;59081;42.706;23.306;2023-07-20T04:24:59;10.18;;;3.85;;
43933;SDS011;59081;42.706;23.306;2023-07-20T04:27:24;16.42;;;8.60;;
43933;SDS011;59081;42.706;23.306;2023-07-20T04:29:51;12.02;;;5.10;;
43933;SDS011;59081;42.706;23.306;2023-07-20T04:32:16;15.60;;;4.95;;
43933;SDS011;59081;42.706;23.306;2023-07-20T04:34:42;10.75;;;5.03;;
43933;SDS011;59081;42.706;23.306;2023-07-20T04:37:08;10.93;;;4.55;;
43933;SDS011;59081;42.706;23.306;2023-07-20T04:39:34;13.88;;;4.13;;
43933;SDS011;59081;42.706;23.306;2023-07-20T04:41:59;9.95;;;3.42;;
43933;SDS011;59081;42.706;23.306;2023-07-20T04:44:25;12.73;;;3.72;;
43933;SDS011;59081;42.706;23.306;2023-07-20T04:46:51;10.10;;;3.80;;
43933;SDS011;59081;42.706;23.306;2023-07-20T04:49:16;14.98;;;6.75;;
43933;SDS011;59081;42.706;23.306;2023-07-20T04:51:42;13.63;;;5.78;;
43933;SDS011;59081;42.706;23.306;2023-07-20T04:54:08;14.75;;;4.65;;
43933;SDS011;59081;42.706;23.306;2023-07-20T04:56:33;5.60;;;3.53;;
43933;SDS011;59081;42.706;23.306;2023-07-20T04:59:04;9.95;;;3.88;;
43933;SDS011;59081;42.706;23.306;2023-07-20T05:01:30;13.10;;;4.25;;
43933;SDS011;59081;42.706;23.306;2023-07-20T05:03:55;6.85;;;3.60;;
43933;SDS011;59081;42.706;23.306;2023-07-20T05:06:21;15.15;;;4.10;;
43933;SDS011;59081;42.706;23.306;2023-07-20T05:08:46;8.68;;;3.95;;
43933;SDS011;59081;42.706;23.306;2023-07-20T05:11:12;10.38;;;3.40;;
43933;SDS011;59081;42.706;23.306;2023-07-20T05:13:38;11.63;;;4.78;;
43933;SDS011;59081;42.706;23.306;2023-07-20T05:16:04;9.68;;;3.97;;
43933;SDS011;59081;42.706;23.306;2023-07-20T05:18:29;9.55;;;4.00;;
43933;SDS011;59081;42.706;23.306;2023-07-20T05:20:55;10.30;;;4.20;;
43933;SDS011;59081;42.706;23.306;2023-07-20T05:23:21;16.58;;;4.65;;
43933;SDS011;59081;42.706;23.306;2023-07-20T05:25:47;13.45;;;3.90;;
43933;SDS011;59081;42.706;23.306;2023-07-20T05:28:22;10.30;;;4.28;;
43933;SDS011;59081;42.706;23.306;2023-07-20T05:30:56;9.32;;;4.07;;
43933;SDS011;59081;42.706;23.306;2023-07-20T05:33:24;9.48;;;4.10;;
43933;SDS011;59081;42.706;23.306;2023-07-20T05:35:50;9.30;;;4.30;;
43933;SDS011;59081;42.706;23.306;2023-07-20T05:38:16;20.27;;;3.83;;
43933;SDS011;59081;42.706;23.306;2023-07-20T05:40:42;15.82;;;4.15;;
43933;SDS011;59081;42.706;23.306;2023-07-20T05:43:09;15.85;;;4.38;;
43933;SDS011;59081;42.706;23.306;2023-07-20T05:45:35;17.45;;;4.55;;
43933;SDS011;59081;42.706;23.306;2023-07-20T05:48:01;13.55;;;4.10;;
43933;SDS011;59081;42.706;23.306;2023-07-20T05:50:26;11.75;;;4.75;;
43933;SDS011;59081;42.706;23.306;2023-07-20T05:52:54;13.73;;;4.22;;
43933;SDS011;59081;42.706;23.306;2023-07-20T05:55:20;13.23;;;4.85;;
43933;SDS011;59081;42.706;23.306;2023-07-20T05:57:46;12.82;;;3.88;;
43933;SDS011;59081;42.706;23.306;2023-07-20T06:00:13;16.05;;;4.55;;
43933;SDS011;59081;42.706;23.306;2023-07-20T06:02:39;14.10;;;4.07;;
43933;SDS011;59081;42.706;23.306;2023-07-20T06:05:05;13.90;;;4.63;;
43933;SDS011;59081;42.706;23.306;2023-07-20T06:07:35;17.13;;;5.18;;
43933;SDS011;59081;42.706;23.306;2023-07-20T06:10:01;20.00;;;5.72;;
43933;SDS011;59081;42.706;23.306;2023-07-20T06:12:27;15.75;;;4.85;;
43933;SDS011;59081;42.706;23.306;2023-07-20T06:14:53;10.90;;;4.57;;
43933;SDS011;59081;42.706;23.306;2023-07-20T06:17:18;13.93;;;4.82;;
43933;SDS011;59081;42.706;23.306;2023-07-20T06:19:49;13.85;;;4.15;;
43933;SDS011;59081;42.706;23.306;2023-07-20T06:22:15;12.07;;;4.63;;
43933;SDS011;59081;42.706;23.306;2023-07-20T06:24:40;11.43;;;5.18;;
43933;SDS011;59081;42.706;23.306;2023-07-20T06:27:06;16.65;;;5.18;;
43933;SDS011;59081;42.706;23.306;2023-07-20T06:29:32;12.48;;;5.00;;
43933;SDS011;59081;42.706;23.306;2023-07-20T06:31:57;20.23;;;5.35;;
43933;SDS011;59081;42.706;23.306;2023-07-20T06:34:23;20.10;;;5.32;;
43933;SDS011;59081;42.706;23.306;2023-07-20T06:36:48;18.63;;;5.82;;
43933;SDS011;59081;42.706;23.306;2023-07-20T06:39:14;14.50;;;5.22;;
43933;SDS011;59081;42.706;23.306;2023-07-20T06:41:40;24.67;;;5.93;;
43933;SDS011;59081;42.706;23.306;2023-07-20T06:44:05;17.02;;;5.85;;
43933;SDS011;59081;42.706;23.306;2023-07-20T06:46:33;12.93;;;5.43;;
43933;SDS011;59081;42.706;23.306;2023-07-20T06:48:58;19.15;;;6.28;;
43933;SDS011;59081;42.706;23.306;2023-07-20T06:51:24;12.23;;;4.88;;
43933;SDS011;59081;42.706;23.306;2023-07-20T06:53:52;13.90;;;5.20;;
43933;SDS011;59081;42.706;23.306;2023-07-20T06:56:18;11.48;;;4.20;;
43933;SDS011;59081;42.706;23.306;2023-07-20T06:58:43;17.73;;;5.45;;
43933;SDS011;59081;42.706;23.306;2023-07-20T07:01:09;14.20;;;4.82;;
43933;SDS011;59081;42.706;23.306;2023-07-20T07:03:35;15.40;;;5.00;;
43933;SDS011;59081;42.706;23.306;2023-07-20T07:06:02;11.73;;;4.65;;
43933;SDS011;59081;42.706;23.306;2023-07-20T07:08:27;11.48;;;4.20;;
43933;SDS011;59081;42.706;23.306;2023-07-20T07:10:53;12.27;;;4.70;;
43933;SDS011;59081;42.706;23.306;2023-07-20T07:13:21;11.88;;;4.32;;
43933;SDS011;59081;42.706;23.306;2023-07-20T07:15:47;16.70;;;5.03;;
43933;SDS011;59081;42.706;23.306;2023-07-20T07:18:13;10.45;;;4.18;;
43933;SDS011;59081;42.706;23.306;2023-07-20T07:20:38;16.60;;;4.15;;
43933;SDS011;59081;42.706;23.306;2023-07-20T07:23:04;12.32;;;3.80;;
43933;SDS011;59081;42.706;23.306;2023-07-20T07:25:29;11.85;;;4.05;;
43933;SDS011;59081;42.706;23.306;2023-07-20T07:27:57;9.15;;;3.80;;
43933;SDS011;59081;42.706;23.306;2023-07-20T07:30:22;14.65;;;4.45;;
43933;SDS011;59081;42.706;23.306;2023-07-20T07:32:48;14.50;;;4.05;;
43933;SDS011;59081;42.706;23.306;2023-07-20T07:37:58;10.90;;;4.05;;
43933;SDS011;59081;42.706;23.306;2023-07-20T07:40:23;13.60;;;4.28;;
43933;SDS011;59081;42.706;23.306;2023-07-20T07:42:49;9.45;;;3.58;;
43933;SDS011;59081;42.706;23.306;2023-07-20T07:45:15;14.07;;;4.05;;
43933;SDS011;59081;42.706;23.306;2023-07-20T07:47:41;14.50;;;4.18;;
43933;SDS011;59081;42.706;23.306;2023-07-20T07:50:07;12.50;;;4.30;;
43933;SDS011;59081;42.706;23.306;2023-07-20T07:52:33;12.93;;;4.32;;
43933;SDS011;59081;42.706;23.306;2023-07-20T07:54:58;10.07;;;3.80;;
43933;SDS011;59081;42.706;23.306;2023-07-20T07:57:25;10.18;;;4.38;;
43933;SDS011;59081;42.706;23.306;2023-07-20T07:59:50;12.07;;;4.45;;
43933;SDS011;59081;42.706;23.306;2023-07-20T08:02:16;9.15;;;3.80;;
43933;SDS011;59081;42.706;23.306;2023-07-20T08:04:41;15.40;;;4.30;;
43933;SDS011;59081;42.706;23.306;2023-07-20T08:07:07;10.70;;;4.07;;
43933;SDS011;59081;42.706;23.306;2023-07-20T08:09:32;9.20;;;3.70;;
43933;SDS011;59081;42.706;23.306;2023-07-20T08:11:58;11.05;;;3.13;;
43933;SDS011;59081;42.706;23.306;2023-07-20T08:14:27;10.75;;;4.25;;
43933;SDS011;59081;42.706;23.306;2023-07-20T08:16:56;11.23;;;4.68;;
43933;SDS011;59081;42.706;23.306;2023-07-20T08:19:24;19.17;;;4.28;;
43933;SDS011;59081;42.706;23.306;2023-07-20T08:21:50;12.80;;;3.50;;
43933;SDS011;59081;42.706;23.306;2023-07-20T08:24:16;7.10;;;3.15;;
43933;SDS011;59081;42.706;23.306;2023-07-20T08:26:41;11.50;;;2.65;;
43933;SDS011;59081;42.706;23.306;2023-07-20T08:29:09;5.53;;;2.28;;
43933;SDS011;59081;42.706;23.306;2023-07-20T08:31:35;10.18;;;2.58;;
43933;SDS011;59081;42.706;23.306;2023-07-20T08:34:00;8.40;;;2.88;;
43933;SDS011;59081;42.706;23.306;2023-07-20T08:36:26;9.68;;;2.58;;
43933;SDS011;59081;42.706;23.306;2023-07-20T08:38:52;12.68;;;3.10;;
43933;SDS011;59081;42.706;23.306;2023-07-20T08:41:17;10.10;;;3.00;;
43933;SDS011;59081;42.706;23.306;2023-07-20T08:43:43;7.95;;;2.85;;
43933;SDS011;59081;42.706;23.306;2023-07-20T08:46:12;12.85;;;3.35;;
43933;SDS011;59081;42.706;23.306;2023-07-20T08:48:40;13.65;;;3.17;;
43933;SDS011;59081;42.706;23.306;2023-07-20T08:51:07;12.02;;;2.70;;
43933;SDS011;59081;42.706;23.306;2023-07-20T08:53:32;13.43;;;3.22;;
43933;SDS011;59081;42.706;23.306;2023-07-20T08:55:59;14.60;;;3.42;;
43933;SDS011;59081;42.706;23.306;2023-07-20T08:58:26;7.25;;;2.67;;
43933;SDS011;59081;42.706;23.306;2023-07-20T09:00:53;12.43;;;2.70;;
43933;SDS011;59081;42.706;23.306;2023-07-20T09:03:20;9.65;;;2.67;;
43933;SDS011;59081;42.706;23.306;2023-07-20T09:05:46;8.30;;;2.55;;
43933;SDS011;59081;42.706;23.306;2023-07-20T09:08:13;11.75;;;3.00;;
43933;SDS011;59081;42.706;23.306;2023-07-20T09:10:39;13.38;;;2.83;;
43933;SDS011;59081;42.706;23.306;2023-07-20T09:13:05;10.05;;;3.15;;
43933;SDS011;59081;42.706;23.306;2023-07-20T09:15:30;5.10;;;2.42;;
43933;SDS011;59081;42.706;23.306;2023-07-20T09:17:56;8.77;;;3.08;;
43933;SDS011;59081;42.706;23.306;2023-07-20T09:20:21;8.00;;;2.53;;
43933;SDS011;59081;42.706;23.306;2023-07-20T09:22:47;10.20;;;2.97;;
43933;SDS011;59081;42.706;23.306;2023-07-20T09:25:15;9.13;;;2.80;;
43933;SDS011;59081;42.706;23.306;2023-07-20T09:27:43;9.55;;;2.85;;
43933;SDS011;59081;42.706;23.306;2023-07-20T09:30:13;12.73;;;3.22;;
43933;SDS011;59081;42.706;23.306;2023-07-20T09:32:44;7.53;;;2.55;;
43933;SDS011;59081;42.706;23.306;2023-07-20T09:35:13;9.85;;;2.80;;
43933;SDS011;59081;42.706;23.306;2023-07-20T09:37:55;8.65;;;2.55;;
43933;SDS011;59081;42.706;23.306;2023-07-20T09:40:24;9.50;;;3.40;;
43933;SDS011;59081;42.706;23.306;2023-07-20T09:42:51;6.65;;;2.50;;
43933;SDS011;59081;42.706;23.306;2023-07-20T09:45:27;7.28;;;2.60;;
43933;SDS011;59081;42.706;23.306;2023-07-20T09:48:02;11.27;;;2.97;;
43933;SDS011;59081;42.706;23.306;2023-07-20T09:50:28;7.45;;;2.70;;
43933;SDS011;59081;42.706;23.306;2023-07-20T09:52:54;9.70;;;2.70;;
43933;SDS011;59081;42.706;23.306;2023-07-20T09:55:20;12.77;;;3.00;;
43933;SDS011;59081;42.706;23.306;2023-07-20T09:57:48;8.68;;;2.30;;
43933;SDS011;59081;42.706;23.306;2023-07-20T10:00:14;12.27;;;2.80;;
43933;SDS011;59081;42.706;23.306;2023-07-20T10:02:44;11.13;;;3.08;;
43933;SDS011;59081;42.706;23.306;2023-07-20T10:05:12;7.63;;;2.40;;
43933;SDS011;59081;42.706;23.306;2023-07-20T10:07:40;6.78;;;2.17;;
43933;SDS011;59081;42.706;23.306;2023-07-20T10:10:10;8.85;;;2.13;;
43933;SDS011;59081;42.706;23.306;2023-07-20T10:12:37;10.82;;;2.20;;
43933;SDS011;59081;42.706;23.306;2023-07-20T10:15:08;11.32;;;2.53;;
43933;SDS011;59081;42.706;23.306;2023-07-20T10:17:37;5.78;;;1.80;;
43933;SDS011;59081;42.706;23.306;2023-07-20T10:20:09;9.73;;;2.33;;
43933;SDS011;59081;42.706;23.306;2023-07-20T10:22:36;9.27;;;2.80;;
43933;SDS011;59081;42.706;23.306;2023-07-20T10:25:04;11.32;;;2.35;;
43933;SDS011;59081;42.706;23.306;2023-07-20T10:27:31;13.68;;;2.53;;
43933;SDS011;59081;42.706;23.306;2023-07-20T10:29:57;10.30;;;2.10;;
43933;SDS011;59081;42.706;23.306;2023-07-20T10:32:24;7.30;;;2.25;;
43933;SDS011;59081;42.706;23.306;2023-07-20T10:34:53;12.43;;;2.70;;
43933;SDS011;59081;42.706;23.306;2023-07-20T10:42:59;6.88;;;1.92;;
43933;SDS011;59081;42.706;23.306;2023-07-20T10:48:17;8.85;;;2.58;;
43933;SDS011;59081;42.706;23.306;2023-07-20T10:50:45;11.85;;;2.65;;
43933;SDS011;59081;42.706;23.306;2023-07-20T10:53:12;8.40;;;2.38;;
43933;SDS011;59081;42.706;23.306;2023-07-20T10:58:13;12.45;;;2.63;;
43933;SDS011;59081;42.706;23.306;2023-07-20T11:00:58;5.50;;;2.40;;
43933;SDS011;59081;42.706;23.306;2023-07-20T11:03:26;9.63;;;2.20;;
43933;SDS011;59081;42.706;23.306;2023-07-20T11:05:53;9.27;;;2.28;;
43933;SDS011;59081;42.706;23.306;2023-07-20T11:08:38;9.25;;;3.05;;
43933;SDS011;59081;42.706;23.306;2023-07-20T11:13:55;7.47;;;1.95;;
43933;SDS011;59081;42.706;23.306;2023-07-20T11:16:32;7.50;;;2.60;;
43933;SDS011;59081;42.706;23.306;2023-07-20T11:19:02;8.82;;;2.35;;
43933;SDS011;59081;42.706;23.306;2023-07-20T11:21:29;8.45;;;2.92;;
43933;SDS011;59081;42.706;23.306;2023-07-20T11:24:02;6.32;;;2.30;;
43933;SDS011;59081;42.706;23.306;2023-07-20T11:26:28;10.60;;;3.30;;
43933;SDS011;59081;42.706;23.306;2023-07-20T11:28:54;10.93;;;3.63;;
43933;SDS011;59081;42.706;23.306;2023-07-20T11:31:19;7.68;;;3.38;;
43933;SDS011;59081;42.706;23.306;2023-07-20T11:33:45;11.60;;;3.08;;
43933;SDS011;59081;42.706;23.306;2023-07-20T11:36:11;11.32;;;3.55;;
43933;SDS011;59081;42.706;23.306;2023-07-20T11:38:37;7.78;;;2.80;;
43933;SDS011;59081;42.706;23.306;2023-07-20T11:41:06;8.38;;;3.17;;
43933;SDS011;59081;42.706;23.306;2023-07-20T11:43:32;11.68;;;2.90;;
43933;SDS011;59081;42.706;23.306;2023-07-20T11:45:58;9.15;;;2.88;;
43933;SDS011;59081;42.706;23.306;2023-07-20T11:48:24;5.88;;;2.42;;
43933;SDS011;59081;42.706;23.306;2023-07-20T11:50:49;10.43;;;3.10;;
43933;SDS011;59081;42.706;23.306;2023-07-20T11:53:15;7.60;;;3.13;;
43933;SDS011;59081;42.706;23.306;2023-07-20T11:55:41;11.18;;;3.58;;
43933;SDS011;59081;42.706;23.306;2023-07-20T11:58:07;10.13;;;2.70;;
43933;SDS011;59081;42.706;23.306;2023-07-20T12:00:34;18.85;;;3.90;;
43933;SDS011;59081;42.706;23.306;2023-07-20T12:03:01;8.25;;;3.53;;
43933;SDS011;59081;42.706;23.306;2023-07-20T12:05:31;12.48;;;3.45;;
43933;SDS011;59081;42.706;23.306;2023-07-20T12:07:57;10.88;;;3.33;;
43933;SDS011;59081;42.706;23.306;2023-07-20T12:10:26;8.93;;;3.08;;
43933;SDS011;59081;42.706;23.306;2023-07-20T12:12:53;5.72;;;3.15;;
43933;SDS011;59081;42.706;23.306;2023-07-20T12:15:23;7.32;;;2.65;;
43933;SDS011;59081;42.706;23.306;2023-07-20T12:17:57;5.88;;;2.75;;
43933;SDS011;59081;42.706;23.306;2023-07-20T12:20:36;8.82;;;2.65;;
43933;SDS011;59081;42.706;23.306;2023-07-20T12:23:04;9.07;;;3.20;;
43933;SDS011;59081;42.706;23.306;2023-07-20T12:25:46;17.55;;;4.00;;
43933;SDS011;59081;42.706;23.306;2023-07-20T12:28:13;8.25;;;2.90;;
43933;SDS011;59081;42.706;23.306;2023-07-20T12:30:40;8.95;;;3.00;;
43933;SDS011;59081;42.706;23.306;2023-07-20T12:33:07;4.72;;;2.50;;
43933;SDS011;59081;42.706;23.306;2023-07-20T12:35:33;8.13;;;3.00;;
43933;SDS011;59081;42.706;23.306;2023-07-20T12:37:59;9.32;;;2.70;;
43933;SDS011;59081;42.706;23.306;2023-07-20T12:40:25;11.82;;;3.17;;
43933;SDS011;59081;42.706;23.306;2023-07-20T12:42:51;8.70;;;2.80;;
43933;SDS011;59081;42.706;23.306;2023-07-20T12:45:16;9.20;;;3.13;;
43933;SDS011;59081;42.706;23.306;2023-07-20T12:47:42;8.13;;;2.72;;
43933;SDS011;59081;42.706;23.306;2023-07-20T12:50:09;11.02;;;3.20;;
43933;SDS011;59081;42.706;23.306;2023-07-20T12:52:38;7.30;;;2.50;;
43933;SDS011;59081;42.706;23.306;2023-07-20T12:55:05;6.85;;;2.60;;
43933;SDS011;59081;42.706;23.306;2023-07-20T12:57:33;7.85;;;3.25;;
43933;SDS011;59081;42.706;23.306;2023-07-20T12:59:59;9.70;;;2.53;;
43933;SDS011;59081;42.706;23.306;2023-07-20T13:02:25;9.57;;;3.03;;
43933;SDS011;59081;42.706;23.306;2023-07-20T13:04:50;8.77;;;3.15;;
43933;SDS011;59081;42.706;23.306;2023-07-20T13:07:15;6.22;;;2.85;;
43933;SDS011;59081;42.706;23.306;2023-07-20T13:09:41;9.70;;;2.83;;
43933;SDS011;59081;42.706;23.306;2023-07-20T13:12:07;7.75;;;2.58;;
43933;SDS011;59081;42.706;23.306;2023-07-20T13:14:33;10.02;;;2.65;;
43933;SDS011;59081;42.706;23.306;2023-07-20T13:16:58;7.80;;;2.80;;
43933;SDS011;59081;42.706;23.306;2023-07-20T13:19:23;11.93;;;2.42;;
43933;SDS011;59081;42.706;23.306;2023-07-20T13:21:49;7.15;;;2.47;;
43933;SDS011;59081;42.706;23.306;2023-07-20T13:24:15;9.18;;;2.72;;
43933;SDS011;59081;42.706;23.306;2023-07-20T13:26:41;10.90;;;3.17;;
43933;SDS011;59081;42.706;23.306;2023-07-20T13:29:06;8.57;;;2.63;;
43933;SDS011;59081;42.706;23.306;2023-07-20T13:31:32;9.35;;;2.47;;
43933;SDS011;59081;42.706;23.306;2023-07-20T13:33:57;11.63;;;3.00;;
43933;SDS011;59081;42.706;23.306;2023-07-20T13:36:23;7.97;;;2.60;;
43933;SDS011;59081;42.706;23.306;2023-07-20T13:38:49;11.48;;;2.83;;
43933;SDS011;59081;42.706;23.306;2023-07-20T13:41:14;14.07;;;2.75;;
43933;SDS011;59081;42.706;23.306;2023-07-20T13:43:42;9.10;;;2.63;;
43933;SDS011;59081;42.706;23.306;2023-07-20T13:46:08;18.73;;;3.42;;
43933;SDS011;59081;42.706;23.306;2023-07-20T13:48:33;10.27;;;2.78;;
43933;SDS011;59081;42.706;23.306;2023-07-20T13:50:59;7.30;;;2.40;;
43933;SDS011;59081;42.706;23.306;2023-07-20T13:53:24;5.25;;;2.35;;
43933;SDS011;59081;42.706;23.306;2023-07-20T13:55:50;9.20;;;2.15;;
43933;SDS011;59081;42.706;23.306;2023-07-20T13:58:17;9.10;;;2.40;;
43933;SDS011;59081;42.706;23.306;2023-07-20T14:00:42;12.50;;;3.28;;
43933;SDS011;59081;42.706;23.306;2023-07-20T14:03:08;10.68;;;2.85;;
43933;SDS011;59081;42.706;23.306;2023-07-20T14:05:34;12.25;;;2.97;;
43933;SDS011;59081;42.706;23.306;2023-07-20T14:08:00;10.52;;;2.17;;
43933;SDS011;59081;42.706;23.306;2023-07-20T14:10:25;10.35;;;2.55;;
43933;SDS011;59081;42.706;23.306;2023-07-20T14:12:51;7.97;;;2.50;;
43933;SDS011;59081;42.706;23.306;2023-07-20T14:15:16;13.20;;;2.47;;
43933;SDS011;59081;42.706;23.306;2023-07-20T14:17:44;8.10;;;2.58;;
43933;SDS011;59081;42.706;23.306;2023-07-20T14:20:09;4.93;;;1.95;;
43933;SDS011;59081;42.706;23.306;2023-07-20T14:22:35;9.23;;;2.30;;
43933;SDS011;59081;42.706;23.306;2023-07-20T14:25:01;4.78;;;2.30;;
43933;SDS011;59081;42.706;23.306;2023-07-20T14:27:26;11.02;;;2.75;;
43933;SDS011;59081;42.706;23.306;2023-07-20T14:29:52;7.63;;;2.55;;
43933;SDS011;59081;42.706;23.306;2023-07-20T14:32:18;9.48;;;2.25;;
43933;SDS011;59081;42.706;23.306;2023-07-20T14:34:43;19.73;;;3.17;;
43933;SDS011;59081;42.706;23.306;2023-07-20T14:37:09;7.90;;;2.55;;
43933;SDS011;59081;42.706;23.306;2023-07-20T14:39:35;16.88;;;2.83;;
43933;SDS011;59081;42.706;23.306;2023-07-20T14:42:00;13.32;;;3.28;;
43933;SDS011;59081;42.706;23.306;2023-07-20T14:44:28;7.18;;;2.60;;
43933;SDS011;59081;42.706;23.306;2023-07-20T14:46:54;6.10;;;2.72;;
43933;SDS011;59081;42.706;23.306;2023-07-20T14:49:20;8.07;;;2.97;;
43933;SDS011;59081;42.706;23.306;2023-07-20T14:51:45;11.23;;;2.92;;